createdAt,value
2022-10-04T00:01:52.727Z,2.55
2022-10-04T00:04:49.265Z,2.70
2022-10-04T00:07:24.624Z,2.40
2022-10-04T00:10:04.408Z,2.40
2022-10-04T00:12:40.421Z,2.13
2022-10-04T00:15:29.441Z,2.33
2022-10-04T00:18:37.478Z,2.10
2022-10-04T00:21:05.966Z,2.03
2022-10-04T00:23:38.982Z,1.75
2022-10-04T00:28:37.904Z,1.90
2022-10-04T00:31:13.609Z,2.28
2022-10-04T00:33:46.588Z,2.00
2022-10-04T00:36:46.457Z,2.05
2022-10-04T00:39:17.045Z,1.92
2022-10-04T00:41:49.732Z,2.25
2022-10-04T00:44:29.468Z,2.00
2022-10-04T00:46:59.131Z,2.25
2022-10-04T00:49:31.042Z,2.10
2022-10-04T00:52:13.885Z,2.33
2022-10-04T00:54:50.394Z,1.95
2022-10-04T00:57:45.005Z,1.92
2022-10-04T01:00:15.945Z,2.78
2022-10-04T01:02:45.645Z,2.35
2022-10-04T01:05:28.112Z,2.00
2022-10-04T01:07:58.303Z,2.00
2022-10-04T01:10:39.383Z,1.83
2022-10-04T01:13:20.890Z,2.20
2022-10-04T01:16:20.288Z,1.80
2022-10-04T01:18:47.794Z,1.90
2022-10-04T01:21:20.539Z,2.10
2022-10-04T01:23:51.795Z,2.00
2022-10-04T01:26:30.454Z,1.67
2022-10-04T01:29:05.140Z,1.90
2022-10-04T01:31:34.436Z,1.60
2022-10-04T01:34:02.641Z,2.00
2022-10-04T01:36:29.812Z,2.00
2022-10-04T01:38:57.469Z,1.60
2022-10-04T01:41:54.212Z,1.92
2022-10-04T01:44:45.415Z,1.85
2022-10-04T01:47:18.305Z,1.63
2022-10-04T01:49:47.171Z,1.98
2022-10-04T01:52:31.590Z,1.67
2022-10-04T01:55:06.977Z,2.28
2022-10-04T01:58:17.008Z,1.92
2022-10-04T02:00:55.429Z,1.75
2022-10-04T02:03:48.848Z,1.63
2022-10-04T02:06:16.431Z,1.70
2022-10-04T02:08:50.721Z,1.90
2022-10-04T02:11:21.565Z,1.90
2022-10-04T02:13:51.661Z,2.38
2022-10-04T02:16:20.122Z,1.95
2022-10-04T02:18:47.616Z,1.80
2022-10-04T02:21:16.347Z,2.00
2022-10-04T02:23:45.149Z,2.03
2022-10-04T02:26:12.592Z,2.10
2022-10-04T02:28:39.692Z,2.25
2022-10-04T02:31:27.368Z,1.98
2022-10-04T02:33:58.691Z,2.03
2022-10-04T02:36:29.580Z,2.10
2022-10-04T02:39:03.241Z,1.80
2022-10-04T02:41:44.880Z,1.80
2022-10-04T02:44:17.826Z,1.90
2022-10-04T02:47:18.680Z,1.95
2022-10-04T02:49:55.145Z,2.05
2022-10-04T02:52:34.804Z,2.20
2022-10-04T02:55:06.837Z,2.20
2022-10-04T02:57:35.189Z,2.15
2022-10-04T03:00:20.086Z,2.05
2022-10-04T03:03:11.392Z,1.85
2022-10-04T03:05:40.283Z,1.92
2022-10-04T03:08:07.618Z,2.10
2022-10-04T03:10:35.961Z,1.70
2022-10-04T03:13:03.857Z,1.70
2022-10-04T03:15:31.316Z,2.30
2022-10-04T03:17:59.775Z,1.90
2022-10-04T03:20:27.537Z,1.90
2022-10-04T03:22:55.813Z,1.70
2022-10-04T03:25:29.196Z,1.80
2022-10-04T03:28:00.437Z,1.80
2022-10-04T03:30:27.536Z,1.98
2022-10-04T03:32:54.816Z,2.10
2022-10-04T03:35:36.745Z,2.10
2022-10-04T03:38:08.455Z,2.30
2022-10-04T03:40:38.712Z,2.38
2022-10-04T03:43:06.695Z,1.77
2022-10-04T03:45:35.294Z,2.10
2022-10-04T03:48:06.781Z,1.60
2022-10-04T03:50:39.207Z,1.90
2022-10-04T03:53:22.172Z,1.80
2022-10-04T03:55:49.095Z,2.00
2022-10-04T03:58:19.174Z,2.10
2022-10-04T04:01:12.114Z,2.33
2022-10-04T04:04:18.222Z,2.30
2022-10-04T04:06:56.884Z,2.30
2022-10-04T04:09:41.718Z,1.90
2022-10-04T04:12:20.188Z,1.60
2022-10-04T04:14:50.975Z,1.80
2022-10-04T04:17:27.343Z,2.30
2022-10-04T04:19:59.795Z,2.35
2022-10-04T04:22:31.515Z,2.28
2022-10-04T04:25:04.853Z,2.63
2022-10-04T04:27:36.736Z,3.10
2022-10-04T04:30:06.851Z,2.92
2022-10-04T04:32:40.511Z,3.45
2022-10-04T04:35:21.572Z,3.40
2022-10-04T04:38:17.621Z,2.50
2022-10-04T04:40:45.362Z,2.75
2022-10-04T04:43:20.893Z,3.15
2022-10-04T04:46:08.557Z,3.10
2022-10-04T04:48:37.837Z,3.15
2022-10-04T04:51:05.238Z,2.70
2022-10-04T04:53:32.707Z,2.90
2022-10-04T04:56:04.288Z,3.03
2022-10-04T04:58:38.865Z,3.00
2022-10-04T05:01:05.719Z,3.60
2022-10-04T05:03:34.213Z,3.42
2022-10-04T05:06:04.926Z,2.88
2022-10-04T05:08:37.327Z,3.03
2022-10-04T05:11:08.371Z,3.92
2022-10-04T05:13:45.870Z,3.78
2022-10-04T05:16:23.693Z,5.55
2022-10-04T05:19:00.131Z,4.65
2022-10-04T05:21:36.212Z,4.97
2022-10-04T05:24:31.594Z,4.43
2022-10-04T05:27:03.155Z,4.03
2022-10-04T05:29:38.088Z,4.25
2022-10-04T05:32:29.967Z,5.50
2022-10-04T05:34:57.705Z,4.50
2022-10-04T05:37:44.785Z,5.20
2022-10-04T05:40:21.027Z,5.70
2022-10-04T05:42:49.298Z,5.18
2022-10-04T05:45:18.171Z,5.22
2022-10-04T05:47:49.079Z,4.78
2022-10-04T05:50:35.772Z,5.97
2022-10-04T05:53:27.129Z,5.75
2022-10-04T05:56:00.032Z,6.65
2022-10-04T05:58:51.994Z,4.65
2022-10-04T06:01:41.731Z,5.65
2022-10-04T06:04:39.302Z,4.45
2022-10-04T06:07:12.384Z,4.05
2022-10-04T06:12:46.034Z,4.20
2022-10-04T06:15:16.030Z,4.80
2022-10-04T06:18:06.236Z,7.43
2022-10-04T06:20:42.428Z,6.40
2022-10-04T06:23:31.844Z,4.70
2022-10-04T06:26:06.234Z,4.82
2022-10-04T06:28:39.938Z,5.10
2022-10-04T06:31:12.893Z,5.28
2022-10-04T06:33:39.790Z,4.43
2022-10-04T06:36:37.731Z,4.10
2022-10-04T06:39:23.781Z,4.53
2022-10-04T06:42:34.148Z,3.20
2022-10-04T06:45:19.477Z,3.33
2022-10-04T06:48:05.248Z,3.03
2022-10-04T06:50:35.235Z,3.50
2022-10-04T06:53:17.547Z,2.80
2022-10-04T06:55:54.196Z,3.17
2022-10-04T06:58:30.166Z,3.22
2022-10-04T07:01:00.030Z,3.28
2022-10-04T07:03:51.588Z,3.40
2022-10-04T07:06:28.102Z,3.10
2022-10-04T07:08:59.833Z,3.53
2022-10-04T07:11:42.895Z,3.30
2022-10-04T07:17:10.688Z,2.80
2022-10-04T07:19:47.713Z,3.33
2022-10-04T07:22:43.109Z,3.35
2022-10-04T07:25:28.163Z,4.53
2022-10-04T07:28:22.980Z,3.97
2022-10-04T07:31:06.525Z,3.97
2022-10-04T07:33:54.821Z,3.85
2022-10-04T07:36:30.605Z,3.40
2022-10-04T07:39:04.380Z,4.28
2022-10-04T07:41:52.022Z,3.78
2022-10-04T07:44:37.584Z,4.40
2022-10-04T07:47:11.056Z,4.40
2022-10-04T07:49:41.694Z,4.57
2022-10-04T07:52:18.548Z,4.60
2022-10-04T07:55:06.282Z,5.22
2022-10-04T07:57:40.112Z,4.18
2022-10-04T08:00:28.582Z,4.05
2022-10-04T08:03:20.590Z,3.10
2022-10-04T08:06:19.177Z,2.90
2022-10-04T08:09:14.869Z,2.78
2022-10-04T08:11:53.476Z,4.97
2022-10-04T08:14:43.727Z,5.45
2022-10-04T08:17:30.809Z,5.63
2022-10-04T08:20:31.816Z,4.93
2022-10-04T08:23:24.775Z,4.07
2022-10-04T08:26:10.357Z,5.35
2022-10-04T08:29:18.241Z,4.35
2022-10-04T08:32:06.307Z,3.72
2022-10-04T08:34:55.482Z,3.38
2022-10-04T08:37:48.542Z,3.60
2022-10-04T08:40:24.200Z,2.70
2022-10-04T08:42:57.083Z,4.15
2022-10-04T08:45:34.791Z,4.05
2022-10-04T08:48:39.151Z,3.08
2022-10-04T08:51:43.263Z,2.58
2022-10-04T08:54:16.088Z,2.20
2022-10-04T08:57:21.007Z,2.30
2022-10-04T09:00:12.820Z,2.15
2022-10-04T09:02:48.075Z,2.47
2022-10-04T09:05:51.674Z,2.95
2022-10-04T09:08:29.907Z,3.30
2022-10-04T09:11:06.082Z,2.50
2022-10-04T09:14:18.574Z,5.68
2022-10-04T09:16:48.009Z,2.95
2022-10-04T09:19:40.740Z,2.55
2022-10-04T09:22:36.962Z,2.50
2022-10-04T09:25:41.678Z,4.03
2022-10-04T09:28:17.686Z,2.95
2022-10-04T09:30:56.836Z,2.40
2022-10-04T09:34:01.388Z,2.60
2022-10-04T09:36:51.080Z,2.15
2022-10-04T09:40:03.971Z,1.67
2022-10-04T09:42:52.114Z,1.95
2022-10-04T09:45:23.422Z,1.85
2022-10-04T09:48:08.542Z,1.83
2022-10-04T09:51:08.132Z,1.27
2022-10-04T09:53:37.961Z,1.00
2022-10-04T09:56:28.927Z,1.38
2022-10-04T09:59:10.046Z,1.80
2022-10-04T10:01:41.276Z,1.83
2022-10-04T10:04:35.884Z,1.63
2022-10-04T10:07:23.561Z,2.35
2022-10-04T10:10:43.183Z,2.83
2022-10-04T10:13:42.749Z,1.67
2022-10-04T10:16:41.263Z,1.60
2022-10-04T10:19:22.175Z,1.40
2022-10-04T10:21:58.838Z,1.58
2022-10-04T10:24:58.118Z,1.48
2022-10-04T10:27:39.179Z,1.17
2022-10-04T10:30:43.031Z,0.98
2022-10-04T10:33:32.179Z,1.10
2022-10-04T10:36:32.931Z,1.17
2022-10-04T10:39:23.200Z,0.90
2022-10-04T10:42:21.717Z,0.90
2022-10-04T10:45:17.722Z,1.40
2022-10-04T10:48:00.780Z,1.00
2022-10-04T10:51:05.523Z,0.73
2022-10-04T10:54:10.217Z,0.70
2022-10-04T10:56:59.386Z,1.00
2022-10-04T10:59:38.182Z,0.68
2022-10-04T11:02:47.754Z,0.88
2022-10-04T11:05:42.341Z,0.70
2022-10-04T11:08:29.988Z,0.95
2022-10-04T11:11:35.524Z,0.80
2022-10-04T11:14:21.203Z,1.00
2022-10-04T11:16:53.914Z,0.93
2022-10-04T11:19:24.122Z,0.90
2022-10-04T11:22:09.587Z,1.05
2022-10-04T11:24:55.356Z,1.05
2022-10-04T11:27:28.621Z,1.02
2022-10-04T11:30:09.219Z,0.90
2022-10-04T11:33:14.804Z,0.77
2022-10-04T11:36:19.894Z,1.00
2022-10-04T11:38:49.658Z,1.38
2022-10-04T11:41:34.815Z,0.93
2022-10-04T11:44:07.610Z,1.00
2022-10-04T11:46:52.217Z,1.00
2022-10-04T11:49:49.147Z,1.10
2022-10-04T11:52:50.060Z,0.80
2022-10-04T11:55:38.503Z,0.75
2022-10-04T11:58:25.659Z,0.90
2022-10-04T12:01:30.868Z,0.70
2022-10-04T12:04:12.642Z,1.05
2022-10-04T12:06:58.481Z,1.25
2022-10-04T12:09:25.315Z,1.42
2022-10-04T12:12:37.322Z,0.98
2022-10-04T12:15:49.822Z,1.25
2022-10-04T12:18:41.006Z,0.83
2022-10-04T12:21:19.902Z,0.95
2022-10-04T12:24:04.871Z,1.08
2022-10-04T12:26:44.737Z,0.80
2022-10-04T12:29:14.581Z,1.00
2022-10-04T12:31:43.364Z,1.13
2022-10-04T12:34:15.017Z,0.98
2022-10-04T12:36:48.360Z,1.40
2022-10-04T12:39:41.882Z,2.00
2022-10-04T12:42:40.545Z,1.10
2022-10-04T12:45:36.622Z,1.10
2022-10-04T12:48:40.937Z,2.10
2022-10-04T12:51:30.953Z,1.40
2022-10-04T12:54:32.142Z,1.10
2022-10-04T12:57:17.977Z,0.98
2022-10-04T13:00:00.044Z,1.02
2022-10-04T13:02:47.888Z,2.00
2022-10-04T13:05:20.668Z,1.17
2022-10-04T13:07:56.541Z,1.10
2022-10-04T13:10:40.099Z,1.15
2022-10-04T13:13:28.351Z,1.10
2022-10-04T13:19:14.613Z,0.93
2022-10-04T13:21:41.506Z,1.02
2022-10-04T13:24:17.275Z,0.90
2022-10-04T13:27:01.656Z,2.20
2022-10-04T13:29:56.217Z,1.00
2022-10-04T13:32:31.527Z,1.00
2022-10-04T13:35:37.742Z,0.80
2022-10-04T13:38:13.821Z,1.10
2022-10-04T13:41:11.222Z,2.17
2022-10-04T13:44:20.467Z,3.22
2022-10-04T13:47:08.517Z,2.80
2022-10-04T13:49:53.399Z,1.20
2022-10-04T13:52:47.687Z,1.20
2022-10-04T13:55:40.438Z,1.13
2022-10-04T13:58:13.540Z,0.90
2022-10-04T14:01:15.635Z,1.10
2022-10-04T14:04:03.803Z,1.20
2022-10-04T14:06:53.434Z,0.68
2022-10-04T14:09:44.701Z,0.90
2022-10-04T14:12:25.944Z,1.08
2022-10-04T14:15:30.346Z,0.90
2022-10-04T14:18:26.934Z,0.98
2022-10-04T14:21:20.827Z,1.20
2022-10-04T14:23:56.711Z,0.80
2022-10-04T14:26:55.838Z,1.70
2022-10-04T14:29:22.796Z,0.95
2022-10-04T14:32:10.640Z,1.10
2022-10-04T14:34:58.293Z,2.60
2022-10-04T14:37:47.048Z,1.45
2022-10-04T14:40:44.648Z,1.10
2022-10-04T14:43:39.012Z,1.73
2022-10-04T14:46:24.256Z,1.20
2022-10-04T14:49:19.622Z,0.90
2022-10-04T14:52:08.864Z,1.00
2022-10-04T14:55:04.069Z,0.65
2022-10-04T14:57:44.621Z,0.85
2022-10-04T15:00:19.478Z,1.13
2022-10-04T15:03:25.909Z,0.95
2022-10-04T15:05:54.308Z,0.80
2022-10-04T15:08:21.163Z,1.30
2022-10-04T15:11:08.068Z,1.10
2022-10-04T15:13:51.749Z,1.02
2022-10-04T15:16:46.244Z,1.00
2022-10-04T15:19:22.607Z,1.10
2022-10-04T15:21:55.712Z,1.70
2022-10-04T15:24:28.049Z,1.25
2022-10-04T15:27:27.042Z,1.10
2022-10-04T15:30:03.368Z,1.30
2022-10-04T15:32:51.366Z,1.27
2022-10-04T15:35:41.439Z,3.22
2022-10-04T15:38:39.801Z,3.13
2022-10-04T15:41:34.724Z,4.00
2022-10-04T15:44:12.011Z,5.63
2022-10-04T15:46:46.374Z,5.93
2022-10-04T15:49:16.330Z,5.20
2022-10-04T15:52:03.539Z,3.92
2022-10-04T15:54:57.885Z,3.70
2022-10-04T15:57:47.818Z,3.38
2022-10-04T16:00:29.013Z,4.10
2022-10-04T16:03:07.638Z,4.20
2022-10-04T16:06:12.423Z,6.82
2022-10-04T16:09:04.172Z,7.95
2022-10-04T16:11:58.074Z,8.32
2022-10-04T16:15:01.255Z,9.52
2022-10-04T16:17:56.358Z,9.10
2022-10-04T16:20:29.513Z,11.23
2022-10-04T16:23:34.816Z,10.43
2022-10-04T16:26:12.322Z,10.30
2022-10-04T16:29:08.302Z,10.15
2022-10-04T16:31:58.947Z,9.43
2022-10-04T16:35:05.649Z,8.93
2022-10-04T16:40:34.796Z,9.32
2022-10-04T16:43:16.797Z,10.65
2022-10-04T16:45:45.813Z,9.45
2022-10-04T16:48:30.629Z,8.27
2022-10-04T16:51:18.395Z,7.85
2022-10-04T16:54:04.791Z,6.85
2022-10-04T16:56:51.651Z,8.00
2022-10-04T16:59:38.696Z,7.70
2022-10-04T17:02:23.627Z,6.60
2022-10-04T17:04:59.699Z,5.78
2022-10-04T17:07:52.481Z,6.80
2022-10-04T17:10:48.407Z,6.40
2022-10-04T17:13:15.294Z,6.20
2022-10-04T17:15:54.547Z,6.93
2022-10-04T17:18:30.242Z,6.93
2022-10-04T17:21:10.616Z,6.63
2022-10-04T17:24:09.021Z,6.68
2022-10-04T17:26:49.224Z,6.63
2022-10-04T17:29:41.661Z,6.85
2022-10-04T17:32:44.359Z,6.22
2022-10-04T17:35:30.548Z,6.60
2022-10-04T17:38:09.644Z,6.95
2022-10-04T17:40:39.963Z,7.63
2022-10-04T17:43:35.348Z,8.10
2022-10-04T17:46:12.701Z,8.18
2022-10-04T17:49:11.418Z,7.70
2022-10-04T17:52:09.300Z,7.43
2022-10-04T17:54:57.666Z,7.38
2022-10-04T17:57:39.391Z,7.93
2022-10-04T18:00:12.516Z,7.53
2022-10-04T18:02:58.916Z,7.93
2022-10-04T18:05:30.184Z,8.00
2022-10-04T18:08:10.202Z,6.85
2022-10-04T18:11:06.293Z,8.05
2022-10-04T18:13:51.296Z,7.97
2022-10-04T18:16:46.170Z,7.38
2022-10-04T18:19:39.634Z,7.63
2022-10-04T18:22:16.918Z,8.30
2022-10-04T18:24:45.761Z,7.90
2022-10-04T18:27:24.980Z,8.80
2022-10-04T18:30:00.719Z,9.55
2022-10-04T18:32:27.660Z,8.82
2022-10-04T18:35:16.216Z,8.30
2022-10-04T18:37:43.161Z,9.23
2022-10-04T18:40:24.543Z,9.18
2022-10-04T18:43:01.932Z,9.88
2022-10-04T18:45:34.466Z,8.95
2022-10-04T18:48:13.963Z,9.07
2022-10-04T18:50:47.295Z,7.95
2022-10-04T18:53:23.911Z,8.45
2022-10-04T18:55:59.905Z,8.05
2022-10-04T18:59:22.961Z,8.95
2022-10-04T19:02:01.782Z,8.45
2022-10-04T19:05:11.871Z,8.02
2022-10-04T19:07:58.087Z,9.45
2022-10-04T19:10:38.300Z,8.95
2022-10-04T19:13:20.273Z,10.27
2022-10-04T19:15:53.391Z,9.57
2022-10-04T19:18:47.874Z,9.55
2022-10-04T19:21:45.787Z,9.85
2022-10-04T19:24:48.105Z,11.30
2022-10-04T19:27:32.049Z,8.90
2022-10-04T19:30:20.256Z,8.27
2022-10-04T19:33:02.185Z,7.78
2022-10-04T19:36:03.883Z,7.00
2022-10-04T19:38:51.829Z,7.53
2022-10-04T19:41:30.915Z,8.63
2022-10-04T19:44:11.375Z,9.48
2022-10-04T19:46:50.260Z,7.60
2022-10-04T19:49:43.125Z,7.80
2022-10-04T19:52:28.293Z,8.65
2022-10-04T19:55:03.113Z,7.95
2022-10-04T19:57:39.913Z,7.50
2022-10-04T20:00:12.909Z,9.32
2022-10-04T20:05:17.425Z,8.05
2022-10-04T20:07:53.204Z,8.68
2022-10-04T20:10:33.188Z,8.82
2022-10-04T20:13:17.382Z,7.60
2022-10-04T20:15:47.088Z,7.72
2022-10-04T20:18:32.327Z,9.00
2022-10-04T20:21:00.256Z,9.65
2022-10-04T20:23:48.350Z,8.55
2022-10-04T20:26:55.006Z,7.13
2022-10-04T20:29:37.674Z,8.02
2022-10-04T20:32:06.943Z,7.25
2022-10-04T20:34:38.047Z,8.85
2022-10-04T20:37:10.977Z,10.20
2022-10-04T20:39:40.777Z,7.68
2022-10-04T20:42:25.278Z,8.27
2022-10-04T20:45:09.428Z,7.43
2022-10-04T20:47:46.456Z,7.28
2022-10-04T20:50:35.835Z,7.43
2022-10-04T20:53:07.182Z,6.85
2022-10-04T20:55:39.043Z,7.85
2022-10-04T20:58:23.351Z,20.45
2022-10-04T21:00:54.322Z,13.35
2022-10-04T21:03:24.620Z,6.55
2022-10-04T21:06:08.309Z,6.82
2022-10-04T21:08:36.515Z,6.40
2022-10-04T21:11:06.515Z,6.07
2022-10-04T21:13:48.806Z,6.10
2022-10-04T21:16:35.379Z,5.20
2022-10-04T21:19:30.498Z,5.55
2022-10-04T21:21:59.031Z,5.47
2022-10-04T21:24:38.405Z,9.40
2022-10-04T21:27:10.879Z,7.38
2022-10-04T21:29:39.964Z,7.43
2022-10-04T21:32:06.975Z,6.18
2022-10-04T21:34:52.383Z,7.45
2022-10-04T21:37:22.353Z,5.10
2022-10-04T21:39:49.325Z,5.40
2022-10-04T21:42:16.618Z,5.32
2022-10-04T21:44:43.853Z,6.07
2022-10-04T21:47:11.011Z,6.43
2022-10-04T21:49:38.140Z,6.97
2022-10-04T21:52:05.888Z,6.45
2022-10-04T21:54:33.099Z,7.03
2022-10-04T21:57:00.146Z,5.88
2022-10-04T21:59:27.108Z,5.35
2022-10-04T22:01:54.066Z,6.38
2022-10-04T22:04:20.951Z,5.15
2022-10-04T22:06:48.659Z,4.90
2022-10-04T22:09:15.933Z,5.03
2022-10-04T22:11:42.882Z,4.45
2022-10-04T22:14:09.798Z,5.30
2022-10-04T22:16:36.757Z,26.52
2022-10-04T22:19:04.176Z,20.98
2022-10-04T22:21:31.050Z,12.63
2022-10-04T22:23:57.976Z,6.82
2022-10-04T22:26:27.035Z,5.78
2022-10-04T22:28:55.804Z,4.90
2022-10-04T22:31:28.091Z,4.78
2022-10-04T22:33:55.802Z,6.10
2022-10-04T22:36:40.163Z,5.18
2022-10-04T22:39:09.823Z,3.95
2022-10-04T22:41:39.835Z,3.92
2022-10-04T22:44:19.689Z,4.20
2022-10-04T22:46:51.084Z,4.68
2022-10-04T22:49:21.522Z,3.90
2022-10-04T22:51:50.635Z,3.83
2022-10-04T22:54:21.253Z,4.35
2022-10-04T22:56:49.482Z,4.60
2022-10-04T22:59:19.785Z,4.15
2022-10-04T23:01:48.020Z,4.97
2022-10-04T23:04:25.732Z,4.20
2022-10-04T23:06:53.560Z,4.43
2022-10-04T23:09:20.988Z,4.95
2022-10-04T23:11:47.933Z,4.90
2022-10-04T23:14:15.036Z,4.95
2022-10-04T23:16:43.135Z,4.13
2022-10-04T23:19:16.213Z,3.97
2022-10-04T23:21:48.454Z,3.72
2022-10-04T23:24:22.271Z,3.57
2022-10-04T23:26:56.648Z,3.70
2022-10-04T23:29:26.821Z,3.83
2022-10-04T23:31:54.206Z,3.67
2022-10-04T23:34:33.395Z,4.00
2022-10-04T23:37:00.503Z,3.97
2022-10-04T23:39:31.002Z,3.90
2022-10-04T23:41:58.351Z,4.03
2022-10-04T23:44:38.195Z,4.32
2022-10-04T23:47:20.105Z,4.65
2022-10-04T23:49:49.819Z,5.00
2022-10-04T23:52:29.935Z,4.05
2022-10-04T23:54:56.926Z,3.75
2022-10-04T23:57:27.173Z,3.78
2022-10-04T23:59:54.610Z,3.90
